Time;durP1;ratioP1;P1;durP2;ratioP2;P2;SDS_P1;SDS_P2;PMS_P1;PMS_P2;Temp;Humidity;BMP_temperature;BMP_pressure;BME280_temperature;BME280_humidity;BME280_pressure;Samples;Min_cycle;Max_cycle;Signal;HPM_P1;HPM_P2
2022/09/12 05:04:20;;;;;;;0.90;0.70;;;;;;;8.61;100.00;97148.38;1870729;76;22119;-64
2022/09/12 05:06:47;;;;;;;0.80;0.70;;;;;;;8.57;100.00;97154.07;1827964;78;20904;-62
2022/09/12 05:09:15;;;;;;;0.50;0.50;;;;;;;8.58;100.00;97156.44;1827100;78;21112;-58
2022/09/12 05:11:45;;;;;;;1.15;0.50;;;;;;;8.65;100.00;97152.03;1823544;77;20895;-60
2022/09/12 05:14:14;;;;;;;0.40;0.40;;;;;;;8.73;100.00;97151.34;1827934;77;20916;-59
2022/09/12 05:16:41;;;;;;;0.62;0.40;;;;;;;8.85;100.00;97154.30;1836833;77;21019;-60
2022/09/12 05:19:10;;;;;;;1.02;0.40;;;;;;;8.96;100.00;97154.33;1825973;78;21002;-59
2022/09/12 05:21:37;;;;;;;0.90;0.40;;;;;;;9.08;100.00;97161.81;1823042;78;21188;-60
2022/09/12 05:24:05;;;;;;;0.40;0.40;;;;;;;9.16;100.00;97153.88;1823464;78;20965;-60
2022/09/12 05:26:32;;;;;;;0.37;0.37;;;;;;;9.21;100.00;97155.09;1825948;77;21056;-60
2022/09/12 05:29:05;;;;;;;0.37;0.37;;;;;;;9.27;100.00;97159.26;1835100;77;20908;-61
2022/09/12 05:31:36;;;;;;;0.78;0.47;;;;;;;9.34;100.00;97156.16;1826836;77;20982;-60
2022/09/12 05:34:05;;;;;;;0.40;0.40;;;;;;;9.35;100.00;97155.84;1820808;77;21090;-59
2022/09/12 05:36:33;;;;;;;1.35;0.35;;;;;;;9.40;100.00;97157.08;1819800;78;21466;-60
2022/09/12 05:39:00;;;;;;;0.50;0.20;;;;;;;9.44;100.00;97157.27;1820151;78;21017;-60
2022/09/12 05:41:32;;;;;;;0.30;0.30;;;;;;;9.46;100.00;97157.22;1782382;78;21504;-60
2022/09/12 05:44:02;;;;;;;0.42;0.40;;;;;;;9.51;100.00;97150.96;1818761;78;21511;-61
2022/09/12 05:46:39;;;;;;;0.93;0.40;;;;;;;9.56;100.00;97154.29;1812350;78;21268;-60
2022/09/12 05:49:15;;;;;;;1.50;0.50;;;;;;;9.56;100.00;97156.96;1760640;80;20948;-61
2022/09/12 05:51:49;;;;;;;0.78;0.50;;;;;;;9.60;100.00;97154.48;1770635;79;21474;-60
2022/09/12 05:54:19;;;;;;;0.65;0.40;;;;;;;9.64;100.00;97159.46;1780149;80;21169;-60
2022/09/12 05:56:47;;;;;;;0.40;0.40;;;;;;;9.67;100.00;97162.08;1781895;80;20952;-59
2022/09/12 05:59:19;;;;;;;3.40;0.55;;;;;;;9.69;100.00;97157.21;1751466;80;21686;-59
2022/09/12 06:01:48;;;;;;;0.60;0.40;;;;;;;9.73;100.00;97160.88;1768373;80;21004;-59
2022/09/12 06:04:15;;;;;;;0.50;0.30;;;;;;;9.76;100.00;97153.56;1740283;82;21019;-60
2022/09/12 06:06:45;;;;;;;0.65;0.40;;;;;;;9.75;100.00;97155.44;1761880;79;20924;-59
2022/09/12 06:09:14;;;;;;;0.37;0.37;;;;;;;9.72;100.00;97156.61;1764192;80;21470;-58
2022/09/12 06:11:41;;;;;;;0.20;0.20;;;;;;;9.71;100.00;97149.13;1773675;79;21196;-57
2022/09/12 06:14:10;;;;;;;0.57;0.40;;;;;;;9.72;100.00;97153.39;1765155;79;21070;-58
2022/09/12 06:16:37;;;;;;;0.90;0.40;;;;;;;9.74;100.00;97153.08;1761919;79;21049;-58
2022/09/12 06:19:17;;;;;;;0.85;0.40;;;;;;;9.71;100.00;97154.48;1781393;79;20994;-58
2022/09/12 06:21:47;;;;;;;0.40;0.40;;;;;;;9.70;100.00;97152.92;1788081;79;21420;-59
2022/09/12 06:24:17;;;;;;;0.85;0.40;;;;;;;9.71;100.00;97158.48;1823728;78;21717;-59
2022/09/12 06:27:04;;;;;;;0.30;0.30;;;;;;;9.74;100.00;97157.89;1813882;77;20820;-57
2022/09/12 06:30:04;;;;;;;0.40;0.40;;;;;;;9.76;100.00;97149.02;1816670;77;21019;-58
2022/09/12 06:32:47;;;;;;;0.40;0.40;;;;;;;9.81;100.00;97148.09;1820317;77;21620;-56
2022/09/12 06:35:27;;;;;;;0.47;0.35;;;;;;;9.79;100.00;97155.64;1814562;77;21026;-56
2022/09/12 06:38:07;;;;;;;0.40;0.40;;;;;;;9.77;100.00;97159.16;1769933;79;21174;-59
2022/09/12 06:44:01;;;;;;;0.30;0.30;;;;;;;9.72;100.00;97164.63;1826865;77;20994;-56
2022/09/12 06:47:03;;;;;;;1.00;0.40;;;;;;;9.68;100.00;97171.69;1832083;77;21575;-58
2022/09/12 06:49:41;;;;;;;0.55;0.40;;;;;;;9.73;100.00;97162.22;1812373;77;21490;-55
2022/09/12 06:52:31;;;;;;;0.68;0.40;;;;;;;9.77;100.00;97167.19;1776477;79;21338;-57
2022/09/12 06:55:17;;;;;;;0.40;0.40;;;;;;;9.80;100.00;97170.03;1819090;77;21482;-57
2022/09/12 06:58:04;;;;;;;3.55;0.50;;;;;;;9.78;100.00;97167.41;1819879;77;21466;-59
2022/09/12 07:00:44;;;;;;;0.40;0.40;;;;;;;9.79;100.00;97176.48;1821254;77;21128;-60
2022/09/12 07:03:28;;;;;;;0.70;0.55;;;;;;;9.86;100.00;97176.06;1812974;77;21504;-59
2022/09/12 07:06:10;;;;;;;0.35;0.35;;;;;;;9.82;100.00;97174.52;1826825;77;21793;-59
2022/09/12 07:08:49;;;;;;;0.60;0.40;;;;;;;9.81;100.00;97177.52;1833428;77;21451;-58
2022/09/12 07:11:35;;;;;;;0.30;0.30;;;;;;;9.85;100.00;97185.16;1807326;77;20924;-59
2022/09/12 07:14:22;;;;;;;0.30;0.30;;;;;;;9.84;100.00;97180.92;1771323;79;21041;-58
2022/09/12 07:17:08;;;;;;;2.17;0.80;;;;;;;9.87;100.00;97185.67;1764162;79;21013;-58
2022/09/12 07:19:48;;;;;;;0.93;0.55;;;;;;;9.92;100.00;97188.20;1766461;79;21234;-57
2022/09/12 07:22:33;;;;;;;0.88;0.50;;;;;;;9.92;100.00;97189.00;1762246;79;21010;-56
2022/09/12 07:25:15;;;;;;;0.82;0.70;;;;;;;9.90;100.00;97187.17;1760389;79;20982;-56
2022/09/12 07:27:56;;;;;;;0.55;0.55;;;;;;;9.89;100.00;97195.52;1764583;79;20970;-58
2022/09/12 07:30:36;;;;;;;0.62;0.50;;;;;;;9.84;100.00;97191.62;1770233;79;21078;-58
2022/09/12 07:33:30;;;;;;;0.40;0.40;;;;;;;9.80;100.00;97188.75;1756545;79;21111;-58
2022/09/12 07:36:27;;;;;;;0.50;0.47;;;;;;;9.80;100.00;97193.33;1755371;79;21013;-57
2022/09/12 07:39:12;;;;;;;0.40;0.40;;;;;;;9.78;100.00;97192.82;1814769;77;21498;-59
2022/09/12 07:41:57;;;;;;;0.50;0.50;;;;;;;9.74;100.00;97192.66;1814577;79;21627;-58
2022/09/12 07:44:43;;;;;;;0.93;0.57;;;;;;;9.72;100.00;97192.71;1828234;77;20948;-59
2022/09/12 07:47:30;;;;;;;0.30;0.30;;;;;;;9.71;100.00;97197.27;1818655;78;21609;-58
2022/09/12 07:50:18;;;;;;;0.40;0.40;;;;;;;9.74;100.00;97201.22;1828481;77;21086;-59
2022/09/12 07:53:11;;;;;;;2.62;0.55;;;;;;;9.79;100.00;97198.42;1799104;78;21070;-59
2022/09/12 07:56:04;;;;;;;0.60;0.40;;;;;;;9.81;100.00;97200.25;1773909;80;20935;-59
2022/09/12 07:58:50;;;;;;;0.78;0.40;;;;;;;9.82;100.00;97199.16;1773118;79;21860;-61
2022/09/12 08:01:38;;;;;;;1.27;0.30;;;;;;;9.85;100.00;97201.21;1769401;80;21727;-59
2022/09/12 08:04:27;;;;;;;0.40;0.30;;;;;;;9.85;100.00;97203.88;1820632;77;21016;-59
2022/09/12 08:07:22;;;;;;;0.33;0.33;;;;;;;9.85;100.00;97206.56;1818062;77;20886;-58
2022/09/12 08:10:09;;;;;;;0.65;0.40;;;;;;;9.83;100.00;97211.42;1811959;77;21525;-59
2022/09/12 08:12:57;;;;;;;0.70;0.40;;;;;;;9.79;100.00;97205.91;1836070;77;21055;-58
2022/09/12 08:15:48;;;;;;;0.50;0.50;;;;;;;9.79;100.00;97215.27;1764553;80;21035;-58
2022/09/12 08:18:37;;;;;;;0.80;0.50;;;;;;;9.82;100.00;97207.19;1747732;80;20879;-59
2022/09/12 08:21:32;;;;;;;0.75;0.42;;;;;;;9.87;100.00;97209.75;1748010;82;20908;-61
2022/09/12 08:24:24;;;;;;;1.10;0.72;;;;;;;9.90;100.00;97198.42;1770995;80;21009;-59
2022/09/12 08:27:15;;;;;;;0.70;0.68;;;;;;;9.95;100.00;97209.00;1793835;79;20959;-59
2022/09/12 08:30:08;;;;;;;0.88;0.60;;;;;;;9.94;100.00;97200.75;1766221;81;21015;-65
2022/09/12 08:32:42;;;;;;;0.70;0.50;;;;;;;9.95;100.00;97211.67;1769980;81;21016;-58
2022/09/12 08:37:48;;;;;;;1.05;0.57;;;;;;;9.98;100.00;97205.72;1702703;83;21030;-59
2022/09/12 08:40:15;;;;;;;0.80;0.60;;;;;;;10.02;100.00;97205.34;1760653;80;21009;-60
2022/09/12 08:43:16;;;;;;;1.72;0.53;;;;;;;10.05;100.00;97208.76;1761665;79;22932;-59
2022/09/12 08:45:51;;;;;;;0.72;0.42;;;;;;;10.06;100.00;97202.30;1726550;81;21019;-59
2022/09/12 08:48:18;;;;;;;0.40;0.30;;;;;;;10.05;100.00;97209.56;1724664;82;20908;-63
2022/09/12 08:50:46;;;;;;;0.20;0.20;;;;;;;10.07;100.00;97213.25;1778254;80;20963;-60
2022/09/12 08:53:19;;;;;;;0.37;0.37;;;;;;;10.08;100.00;97218.29;1768421;80;21126;-61
2022/09/12 08:55:57;;;;;;;0.45;0.30;;;;;;;10.08;100.00;97210.27;1764448;79;21297;-60
2022/09/12 08:58:26;;;;;;;2.08;0.33;;;;;;;10.11;100.00;97208.36;1753971;80;21006;-60
2022/09/12 09:01:01;;;;;;;0.20;0.20;;;;;;;10.12;100.00;97215.84;1755571;80;21803;-62
2022/09/12 09:03:54;;;;;;;;;;;;;;;10.10;100.00;97206.73;1761720;81;21026;-60
2022/09/12 09:06:33;;;;;;;0.40;0.35;;;;;;;10.08;100.00;97218.29;1764592;80;20146;-59
2022/09/12 09:09:33;;;;;;;0.30;0.30;;;;;;;10.02;100.00;97212.03;1766909;79;21134;-58
2022/09/12 09:12:12;;;;;;;1.95;0.40;;;;;;;10.00;100.00;97210.22;1750289;80;21506;-61
2022/09/12 09:15:23;;;;;;;0.50;0.40;;;;;;;10.03;100.00;97214.39;1777278;80;20985;-61
2022/09/12 09:18:06;;;;;;;0.50;0.50;;;;;;;10.05;100.00;97211.44;1750689;80;20981;-59
2022/09/12 09:20:49;;;;;;;0.70;0.50;;;;;;;10.08;100.00;97221.53;1762429;79;21008;-62
2022/09/12 09:23:30;;;;;;;0.82;0.35;;;;;;;10.06;100.00;97231.19;1750476;79;21503;-60
2022/09/12 09:26:07;;;;;;;0.50;0.47;;;;;;;10.06;100.00;97215.67;1764571;80;20982;-61
2022/09/12 09:28:41;;;;;;;1.10;0.50;;;;;;;10.13;100.00;97224.09;1763706;79;21600;-60
2022/09/12 09:31:24;;;;;;;2.45;0.30;;;;;;;10.17;100.00;97213.81;1777485;79;20964;-59
2022/09/12 09:33:55;;;;;;;0.65;0.40;;;;;;;10.16;100.00;97224.29;1760030;80;21080;-59
2022/09/12 09:36:42;;;;;;;0.53;0.40;;;;;;;10.15;100.00;97221.92;1758269;80;21897;-60
2022/09/12 09:39:51;;;;;;;1.35;0.30;;;;;;;10.17;100.00;97230.44;1749926;80;20938;-61
2022/09/12 09:43:10;;;;;;;0.90;0.40;;;;;;;10.23;100.00;97218.50;1725771;82;21001;-64
2022/09/12 09:45:55;;;;;;;0.30;0.30;;;;;;;10.27;100.00;97219.45;1732891;81;20949;-63
2022/09/12 09:48:35;;;;;;;0.88;0.40;;;;;;;10.32;100.00;97223.92;1705909;82;21056;-62
2022/09/12 09:51:42;;;;;;;0.30;0.20;;;;;;;10.33;100.00;97224.14;1760865;80;21651;-61
2022/09/12 09:54:56;;;;;;;0.57;0.30;;;;;;;10.36;100.00;97228.35;1737323;81;21461;-60
2022/09/12 09:57:45;;;;;;;0.27;0.27;;;;;;;10.36;100.00;97231.03;1710215;82;21078;-56
2022/09/12 10:00:45;;;;;;;0.37;0.35;;;;;;;10.33;100.00;97234.84;1678732;80;21323;-64
2022/09/12 10:03:22;;;;;;;0.33;0.30;;;;;;;10.26;100.00;97243.31;1745187;80;21092;-62
2022/09/12 10:05:58;;;;;;;0.42;0.40;;;;;;;10.20;100.00;97244.52;1734519;82;21528;-61
2022/09/12 10:08:42;;;;;;;0.50;0.47;;;;;;;10.21;100.00;97247.45;1742064;80;21062;-59
2022/09/12 10:11:27;;;;;;;1.27;0.50;;;;;;;10.23;100.00;97245.26;1745144;82;21020;-61
2022/09/12 10:14:08;;;;;;;0.82;0.50;;;;;;;10.28;100.00;97253.17;1742389;82;21040;-65
2022/09/12 10:16:53;;;;;;;0.70;0.47;;;;;;;10.34;100.00;97253.84;1740942;80;21569;-60
2022/09/12 10:19:23;;;;;;;0.72;0.55;;;;;;;10.37;100.00;97255.34;1747532;82;21289;-61
2022/09/12 10:21:57;;;;;;;1.00;0.65;;;;;;;10.42;100.00;97253.88;1744402;82;21580;-61
2022/09/12 10:24:36;;;;;;;0.80;0.70;;;;;;;10.45;100.00;97249.27;1747546;82;21417;-61
2022/09/12 10:27:19;;;;;;;0.80;0.50;;;;;;;10.53;100.00;97259.78;1745907;82;21116;-61
2022/09/12 10:30:04;;;;;;;0.53;0.50;;;;;;;10.54;100.00;97254.66;1746824;82;21081;-61
2022/09/12 10:32:41;;;;;;;0.45;0.45;;;;;;;10.54;100.00;97260.80;1748741;82;21192;-61
2022/09/12 10:35:28;;;;;;;0.60;0.60;;;;;;;10.56;100.00;97259.14;1747183;82;21421;-61
2022/09/12 10:38:15;;;;;;;1.37;0.60;;;;;;;10.62;100.00;97256.02;1747670;80;21519;-59
2022/09/12 10:40:45;;;;;;;0.82;0.60;;;;;;;10.67;100.00;97261.25;1750879;81;21414;-61
2022/09/12 10:43:29;;;;;;;0.82;0.70;;;;;;;10.69;100.00;97260.39;1753920;80;21040;-59
2022/09/12 10:46:20;;;;;;;0.30;0.30;;;;;;;10.68;100.00;97269.54;1752683;80;21210;-63
2022/09/12 10:48:55;;;;;;;0.75;0.50;;;;;;;10.68;100.00;97267.41;1705181;83;21008;-61
2022/09/12 10:51:29;;;;;;;0.40;0.40;;;;;;;10.64;100.00;97275.28;1689451;85;20947;-61
2022/09/12 10:54:14;;;;;;;0.85;0.50;;;;;;;10.62;100.00;97269.98;1701269;82;20958;-60
2022/09/12 10:57:09;;;;;;;0.82;0.62;;;;;;;10.60;100.00;97273.52;1717787;82;21432;-61
2022/09/12 11:00:10;;;;;;;0.70;0.47;;;;;;;10.61;100.00;97278.56;1723497;81;21083;-65
2022/09/12 11:03:16;;;;;;;1.30;0.90;;;;;;;10.59;100.00;97282.09;1715774;81;21040;-61
2022/09/12 11:05:51;;;;;;;1.00;0.80;;;;;;;10.61;100.00;97282.58;1704246;81;20987;-62
2022/09/12 11:08:48;;;;;;;0.75;0.65;;;;;;;10.63;100.00;97292.43;1724936;81;21474;-61
2022/09/12 11:11:46;;;;;;;1.37;0.90;;;;;;;10.63;100.00;97289.75;1709050;84;21079;-64
2022/09/12 11:14:58;;;;;;;0.95;0.80;;;;;;;10.63;100.00;97305.03;1713528;82;21247;-62
2022/09/12 11:17:56;;;;;;;0.85;0.70;;;;;;;10.65;100.00;97317.56;1718040;81;21160;-64
2022/09/12 11:20:45;;;;;;;0.50;0.50;;;;;;;10.71;100.00;97311.79;1719173;81;21530;-62
2022/09/12 11:23:51;;;;;;;1.22;0.60;;;;;;;10.74;100.00;97320.53;1709615;82;21070;-61
2022/09/12 11:26:52;;;;;;;0.80;0.70;;;;;;;10.71;100.00;97321.16;1710070;81;21059;-60
2022/09/12 11:29:46;;;;;;;1.50;0.75;;;;;;;10.60;100.00;97329.77;1715002;81;21188;-60
2022/09/12 11:32:46;;;;;;;1.22;0.80;;;;;;;10.42;100.00;97327.50;1708453;82;21545;-63
2022/09/12 11:35:23;;;;;;;2.42;0.78;;;;;;;10.34;100.00;97329.56;1692658;83;21085;-61
2022/09/12 11:38:18;;;;;;;1.98;1.17;;;;;;;10.30;100.00;97336.62;1709783;82;21635;-64
2022/09/12 11:40:56;;;;;;;4.10;1.40;;;;;;;10.32;100.00;97345.70;1722554;82;21131;-63
2022/09/12 11:43:51;;;;;;;2.08;1.00;;;;;;;10.34;100.00;97339.50;1724448;81;21245;-62
2022/09/12 11:46:27;;;;;;;1.65;1.40;;;;;;;10.36;100.00;97338.10;1721446;81;21575;-63
2022/09/12 11:49:17;;;;;;;2.83;1.20;;;;;;;10.41;100.00;97345.98;1727736;81;24938;-58
2022/09/12 11:51:59;;;;;;;2.30;1.20;;;;;;;10.43;100.00;97343.83;1734014;81;21119;-58
2022/09/12 11:55:04;;;;;;;3.52;1.30;;;;;;;10.54;100.00;97339.00;1732798;81;21185;-65
2022/09/12 11:57:53;;;;;;;2.17;1.17;;;;;;;10.59;100.00;97345.03;1726971;81;21174;-62
2022/09/12 12:00:40;;;;;;;2.10;1.22;;;;;;;10.57;100.00;97347.23;1732442;81;21030;-64
2022/09/12 12:03:38;;;;;;;2.00;1.22;;;;;;;10.59;100.00;97350.39;1739334;81;21121;-62
2022/09/12 12:06:24;;;;;;;1.55;1.15;;;;;;;10.62;100.00;97355.11;1718823;83;21063;-64
2022/09/12 12:09:03;;;;;;;1.17;0.80;;;;;;;10.65;100.00;97355.84;1710261;83;21541;-64
2022/09/12 12:11:37;;;;;;;2.42;1.10;;;;;;;10.69;100.00;97361.41;1678517;83;21519;-61
2022/09/12 12:14:20;;;;;;;2.42;0.88;;;;;;;10.72;100.00;97355.41;1724734;82;21509;-62
2022/09/12 12:16:49;;;;;;;2.08;1.17;;;;;;;10.74;100.00;97360.70;1726614;81;20911;-62
2022/09/12 12:19:24;;;;;;;1.27;0.75;;;;;;;10.79;100.00;97368.62;1687488;84;21025;-60
2022/09/12 12:21:51;;;;;;;2.58;0.90;;;;;;;10.79;100.00;97367.28;1714974;83;20931;-62
2022/09/12 12:24:24;;;;;;;1.60;1.30;;;;;;;10.81;100.00;97374.45;1736124;81;21450;-63
2022/09/12 12:27:01;;;;;;;1.70;1.50;;;;;;;10.79;100.00;97369.96;1738624;79;20991;-61
2022/09/12 12:29:40;;;;;;;2.30;1.90;;;;;;;10.81;100.00;97376.38;1751055;80;21092;-61
2022/09/12 12:32:13;;;;;;;2.58;1.87;;;;;;;10.81;100.00;97367.76;1732199;81;21288;-63
2022/09/12 12:34:44;;;;;;;1.77;1.27;;;;;;;10.86;100.00;97374.34;1737664;82;21099;-59
2022/09/12 12:37:31;;;;;;;1.60;1.15;;;;;;;10.83;100.00;97373.59;1718107;83;21040;-59
2022/09/12 12:40:03;;;;;;;1.52;1.20;;;;;;;10.81;100.00;97371.78;1727263;81;21095;-64
2022/09/12 12:42:39;;;;;;;1.00;0.90;;;;;;;10.85;100.00;97375.99;1740470;81;20971;-61
2022/09/12 12:45:09;;;;;;;;;;;;;;;10.87;100.00;97373.25;1710372;84;20995;-63
2022/09/12 12:47:42;;;;;;;1.15;0.80;;;;;;;10.92;100.00;97377.69;1730273;81;20429;-63
2022/09/12 12:50:20;;;;;;;2.50;0.65;;;;;;;10.96;100.00;97378.11;1696534;83;21273;-62
2022/09/12 12:52:54;;;;;;;0.65;0.65;;;;;;;10.96;100.00;97380.78;1751815;81;21497;-63
2022/09/12 12:55:39;;;;;;;1.20;0.90;;;;;;;10.97;100.00;97393.06;1745757;81;21482;-61
2022/09/12 12:58:07;;;;;;;1.00;0.60;;;;;;;10.98;100.00;97381.27;1742477;81;20948;-62
2022/09/12 13:00:38;;;;;;;0.57;0.57;;;;;;;11.05;100.00;97388.06;1720557;81;21134;-56
2022/09/12 13:03:10;;;;;;;1.20;0.70;;;;;;;11.08;100.00;97386.12;1727667;83;21246;-59
2022/09/12 13:05:43;;;;;;;0.88;0.78;;;;;;;11.09;100.00;97384.48;1748606;82;21462;-59
2022/09/12 13:08:19;;;;;;;1.10;0.90;;;;;;;11.17;100.00;97389.63;1675365;83;21054;-59
2022/09/12 13:10:56;;;;;;;1.40;0.95;;;;;;;11.17;100.00;97389.63;1715841;81;21509;-60
2022/09/12 13:13:34;;;;;;;1.30;0.95;;;;;;;11.21;100.00;97390.61;1730224;82;21464;-60
2022/09/12 13:16:02;;;;;;;0.90;0.60;;;;;;;11.24;100.00;97388.64;1706800;83;21228;-60
2022/09/12 13:18:45;;;;;;;0.95;0.70;;;;;;;11.23;100.00;97395.11;1727998;81;21483;-60
2022/09/12 13:21:18;;;;;;;1.90;1.10;;;;;;;11.21;100.00;97399.42;1728537;81;21593;-59
2022/09/12 13:24:01;;;;;;;0.42;0.42;;;;;;;11.22;100.00;97397.54;1710646;81;21125;-57
2022/09/12 13:26:34;;;;;;;0.75;0.42;;;;;;;11.21;100.00;97397.31;1708326;81;21134;-58
2022/09/12 13:29:21;;;;;;;0.40;0.40;;;;;;;11.16;100.00;97400.92;1701468;82;21174;-60
2022/09/12 13:31:58;;;;;;;0.50;0.50;;;;;;;11.13;100.00;97406.89;1726173;82;21096;-60
2022/09/12 13:34:30;;;;;;;0.40;0.40;;;;;;;11.06;100.00;97407.88;1693921;84;20895;-59
2022/09/12 13:37:15;;;;;;;0.70;0.45;;;;;;;11.02;100.00;97408.80;1711125;81;20865;-59
2022/09/12 13:40:14;;;;;;;0.62;0.55;;;;;;;10.97;100.00;97405.12;1707296;83;20920;-60
2022/09/12 13:42:48;;;;;;;0.40;0.40;;;;;;;10.98;100.00;97402.70;1739433;82;21196;-59
2022/09/12 13:45:25;;;;;;;0.62;0.47;;;;;;;10.98;100.00;97403.24;1704306;82;21549;-59
2022/09/12 13:48:02;;;;;;;1.12;0.70;;;;;;;10.98;100.00;97404.04;1730508;81;21075;-60
2022/09/12 13:50:32;;;;;;;0.47;0.45;;;;;;;11.03;100.00;97418.40;1733518;81;21456;-60
2022/09/12 13:53:12;;;;;;;0.60;0.50;;;;;;;11.02;100.00;97422.20;1736727;81;21044;-59
2022/09/12 13:55:41;;;;;;;0.55;0.53;;;;;;;11.03;100.00;97417.06;1705919;81;21482;-59
2022/09/12 13:58:24;;;;;;;0.50;0.50;;;;;;;11.04;100.00;97417.31;1745241;81;21026;-59
2022/09/12 14:01:10;;;;;;;0.70;0.60;;;;;;;11.05;100.00;97414.86;1731234;82;21156;-60
2022/09/12 14:06:50;;;;;;;1.40;1.07;;;;;;;11.06;100.00;97423.95;1734642;82;21589;-59
2022/09/12 14:09:31;;;;;;;2.12;0.80;;;;;;;11.04;100.00;97420.00;1746195;81;20950;-59
2022/09/12 14:12:02;;;;;;;0.30;0.30;;;;;;;11.05;100.00;97426.92;1739127;81;20955;-59
2022/09/12 14:14:38;;;;;;;0.30;0.30;;;;;;;11.04;100.00;97429.38;1690923;84;21457;-61
2022/09/12 14:17:34;;;;;;;0.23;0.23;;;;;;;10.99;100.00;97421.72;1753165;81;20905;-61
2022/09/12 14:20:07;;;;;;;2.05;0.35;;;;;;;10.94;100.00;97424.52;1739163;81;20962;-60
2022/09/12 14:22:35;;;;;;;0.60;0.50;;;;;;;10.89;100.00;97427.31;1751948;81;21159;-61
2022/09/12 14:25:02;;;;;;;1.32;0.47;;;;;;;10.87;100.00;97428.17;1752686;81;20896;-59
2022/09/12 14:27:34;;;;;;;0.42;0.42;;;;;;;10.86;100.00;97429.80;1748277;81;20983;-60
